Inchinnan, United Kingdom
Current Conditions -  °F | °C
As of 1:20 AM on Saturday 20 Dec 2014 (Local Time) from EGPF Reporting Station
Light Rain Light Rain  
Wind Chill: 34°   Ceiling: 2300
Heat Index: 43°   Visibility: 6mi
Dew Point: 37°   Wind: 22mph
Humidity: 81%   Direction: 270°W
Pressure: 29.85"   Gusts: NA
Location:  55.89°N, 4.44°W
Report Text: EGPF 200120Z AUTO 27019KT 9999 -RA BKN023/// BKN040/// //////CB 06/03 Q1011 RERA
Loading
Personal Weather Stations






























Interactive Weather Map New forecast layout! Learn more

10-Day Weather Forecast

Advertisements
Track Severe Weather on mobile